createdAt,value
2023-07-25T00:01:33.961Z,101159.47
2023-07-25T00:04:06.476Z,101148.13
2023-07-25T00:06:34.649Z,101157.66
2023-07-25T00:09:03.255Z,101143.78
2023-07-25T00:11:31.827Z,101148.06
2023-07-25T00:14:00.147Z,101145.44
2023-07-25T00:16:29.795Z,101146.22
2023-07-25T00:18:58.243Z,101148.72
2023-07-25T00:21:28.038Z,101152.09
2023-07-25T00:23:57.786Z,101148.63
2023-07-25T00:26:27.032Z,101152.88
2023-07-25T00:28:57.865Z,101150.22
2023-07-25T00:31:26.197Z,101157.97
2023-07-25T00:33:54.632Z,101148.44
2023-07-25T00:36:22.743Z,101145.81
2023-07-25T00:38:52.237Z,101146.66
2023-07-25T00:41:20.375Z,101145.75
2023-07-25T00:43:48.870Z,101150.88
2023-07-25T00:46:18.934Z,101149.13
2023-07-25T00:48:48.334Z,101148.25
2023-07-25T00:51:26.141Z,101146.50
2023-07-25T00:53:55.801Z,101149.91
2023-07-25T00:56:24.166Z,101145.56
2023-07-25T00:58:53.286Z,101153.25
2023-07-25T01:01:21.786Z,101142.88
2023-07-25T01:03:51.022Z,101141.97
2023-07-25T01:06:19.546Z,101142.78
2023-07-25T01:08:51.120Z,101145.31
2023-07-25T01:11:23.626Z,101142.78
2023-07-25T01:13:53.390Z,101154.81
2023-07-25T01:16:25.360Z,101144.47
2023-07-25T01:18:54.065Z,101142.63
2023-07-25T01:21:24.078Z,101149.47
2023-07-25T01:23:52.514Z,101145.13
2023-07-25T01:26:23.388Z,101154.53
2023-07-25T01:28:52.895Z,101151.06
2023-07-25T01:31:21.030Z,101144.13
2023-07-25T01:33:50.590Z,101150.13
2023-07-25T01:36:19.010Z,101152.63
2023-07-25T01:38:47.772Z,101150.03
2023-07-25T01:41:16.062Z,101145.66
2023-07-25T01:43:46.469Z,101148.25
2023-07-25T01:46:14.591Z,101147.34
2023-07-25T01:48:43.654Z,101148.19
2023-07-25T01:51:16.557Z,101147.28
2023-07-25T01:53:45.730Z,101137.81
2023-07-25T01:56:16.230Z,101137.84
2023-07-25T01:58:46.315Z,101136.94
2023-07-25T02:01:14.988Z,101137.75
2023-07-25T02:03:43.193Z,101129.06
2023-07-25T02:06:11.824Z,101136.91
2023-07-25T02:08:40.129Z,101142.09
2023-07-25T02:11:09.282Z,101136.94
2023-07-25T02:13:39.045Z,101135.16
2023-07-25T02:16:09.099Z,101132.53
2023-07-25T02:18:38.634Z,101133.38
2023-07-25T02:21:07.361Z,101129.06
2023-07-25T02:23:38.094Z,101127.28
2023-07-25T02:26:10.420Z,101129.72
2023-07-25T02:28:38.747Z,101131.44
2023-07-25T02:31:10.245Z,101138.19
2023-07-25T02:33:38.371Z,101133.81
2023-07-25T02:36:07.473Z,101126.84
2023-07-25T02:38:35.587Z,101124.22
2023-07-25T02:41:05.063Z,101130.22
2023-07-25T02:43:33.784Z,101120.72
2023-07-25T02:46:01.952Z,101116.41
2023-07-25T02:48:33.934Z,101125.81
2023-07-25T02:51:02.049Z,101121.47
2023-07-25T02:53:30.627Z,101130.03
2023-07-25T02:56:01.307Z,101134.34
2023-07-25T02:58:29.403Z,101130.00
2023-07-25T03:00:57.755Z,101130.84
2023-07-25T03:03:26.194Z,101122.19
2023-07-25T03:05:57.300Z,101121.28
2023-07-25T03:08:25.401Z,101123.88
2023-07-25T03:11:02.044Z,101125.56
2023-07-25T03:13:30.353Z,101124.66
2023-07-25T03:15:58.441Z,101124.66
2023-07-25T03:18:28.424Z,101123.75
2023-07-25T03:20:58.013Z,101123.69
2023-07-25T03:23:28.229Z,101125.38
2023-07-25T03:25:56.043Z,101127.03
2023-07-25T03:28:25.156Z,101119.28
2023-07-25T03:30:53.335Z,101121.78
2023-07-25T03:33:24.294Z,101122.59
2023-07-25T03:35:52.432Z,101115.66
2023-07-25T03:38:23.768Z,101122.47
2023-07-25T03:40:51.847Z,101124.13
2023-07-25T03:43:22.136Z,101117.22
2023-07-25T03:45:50.943Z,101118.88
2023-07-25T03:48:24.171Z,101120.47
2023-07-25T03:50:52.708Z,101118.69
2023-07-25T03:53:22.865Z,101124.66
2023-07-25T03:55:51.250Z,101126.38
2023-07-25T03:58:20.894Z,101132.34
2023-07-25T04:00:50.976Z,101129.75
2023-07-25T04:03:19.525Z,101128.00
2023-07-25T04:05:47.677Z,101135.75
2023-07-25T04:08:16.004Z,101140.06
2023-07-25T04:10:45.751Z,101141.81
2023-07-25T04:13:16.050Z,101137.50
2023-07-25T04:15:46.435Z,101136.72
2023-07-25T04:18:14.632Z,101139.28
2023-07-25T04:20:42.793Z,101131.44
2023-07-25T04:23:10.970Z,101137.47
2023-07-25T04:25:39.288Z,101134.91
2023-07-25T04:28:09.608Z,101141.81
2023-07-25T04:30:37.885Z,101138.41
2023-07-25T04:33:06.553Z,101129.84
2023-07-25T04:35:34.699Z,101134.13
2023-07-25T04:38:04.138Z,101131.63
2023-07-25T04:40:32.736Z,101141.19
2023-07-25T04:43:00.979Z,101137.72
2023-07-25T04:45:30.542Z,101136.94
2023-07-25T04:47:58.786Z,101136.09
2023-07-25T04:50:27.249Z,101138.69
2023-07-25T04:52:55.567Z,101144.75
2023-07-25T04:55:23.827Z,101135.31
2023-07-25T04:57:54.651Z,101136.25
2023-07-25T05:00:23.773Z,101139.84
2023-07-25T05:02:53.441Z,101135.63
2023-07-25T05:05:22.232Z,101142.63
2023-07-25T05:07:52.200Z,101137.56
2023-07-25T05:10:20.867Z,101149.66
2023-07-25T05:12:48.984Z,101140.16
2023-07-25T05:15:17.193Z,101139.25
2023-07-25T05:17:47.306Z,101149.56
2023-07-25T05:20:16.746Z,101148.81
2023-07-25T05:22:50.228Z,101143.75
2023-07-25T05:25:18.794Z,101145.53
2023-07-25T05:27:49.172Z,101144.72
2023-07-25T05:30:17.705Z,101147.38
2023-07-25T05:32:47.468Z,101147.41
2023-07-25T05:35:18.019Z,101144.91
2023-07-25T05:37:47.742Z,101152.75
2023-07-25T05:40:16.120Z,101162.28
2023-07-25T05:42:45.024Z,101159.84
2023-07-25T05:45:15.964Z,101156.50
2023-07-25T05:47:44.848Z,101161.81
2023-07-25T05:50:13.834Z,101164.50
2023-07-25T05:52:46.505Z,101168.03
2023-07-25T05:55:14.955Z,101164.72
2023-07-25T05:57:44.282Z,101167.38
2023-07-25T06:00:14.518Z,101161.41
2023-07-25T06:02:42.632Z,101158.91
2023-07-25T06:05:11.378Z,101161.63
2023-07-25T06:07:39.854Z,101169.50
2023-07-25T06:10:10.393Z,101158.41
2023-07-25T06:12:38.727Z,101161.09
2023-07-25T06:15:09.058Z,101167.25
2023-07-25T06:17:38.850Z,101168.16
2023-07-25T06:20:08.481Z,101163.06
2023-07-25T06:22:38.836Z,101171.81
2023-07-25T06:25:10.129Z,101176.28
2023-07-25T06:27:41.447Z,101160.84
2023-07-25T06:30:16.087Z,101170.50
2023-07-25T06:32:47.716Z,101171.44
2023-07-25T06:35:21.346Z,101182.78
2023-07-25T06:37:50.131Z,101183.75
2023-07-25T06:40:18.770Z,101181.31
2023-07-25T06:42:49.703Z,101181.41
2023-07-25T06:45:20.732Z,101186.72
2023-07-25T06:47:49.416Z,101191.06
2023-07-25T06:50:20.170Z,101179.00
2023-07-25T06:52:52.959Z,101186.91
2023-07-25T06:55:21.376Z,101192.22
2023-07-25T06:57:58.928Z,101195.78
2023-07-25T07:00:28.838Z,101193.25
2023-07-25T07:02:58.804Z,101192.47
2023-07-25T07:05:30.615Z,101198.63
2023-07-25T07:08:05.274Z,101199.66
2023-07-25T07:10:36.740Z,101200.59
2023-07-25T07:13:09.397Z,101205.09
2023-07-25T07:15:38.930Z,101200.81
2023-07-25T07:18:08.415Z,101211.22
2023-07-25T07:20:36.807Z,101204.34
2023-07-25T07:23:05.479Z,101199.25
2023-07-25T07:25:38.082Z,101190.66
2023-07-25T07:28:07.866Z,101202.88
2023-07-25T07:30:35.973Z,101191.75
2023-07-25T07:33:04.152Z,101189.22
2023-07-25T07:35:32.265Z,101184.97
2023-07-25T07:38:00.772Z,101186.78
2023-07-25T07:40:29.650Z,101184.22
2023-07-25T07:42:57.826Z,101190.34
2023-07-25T07:45:28.658Z,101188.69
2023-07-25T07:47:56.811Z,101193.91
2023-07-25T07:50:25.199Z,101191.38
2023-07-25T07:52:53.273Z,101193.19
2023-07-25T07:55:24.962Z,101201.06
2023-07-25T07:57:54.175Z,101191.59
2023-07-25T08:00:22.500Z,101195.06
2023-07-25T08:02:52.990Z,101195.09
2023-07-25T08:05:21.458Z,101200.28
2023-07-25T08:07:50.333Z,101198.59
2023-07-25T08:10:19.131Z,101203.84
2023-07-25T08:12:47.485Z,101200.41
2023-07-25T08:15:15.663Z,101191.75
2023-07-25T08:17:45.025Z,101200.44
2023-07-25T08:20:15.030Z,101193.50
2023-07-25T08:22:43.140Z,101199.63
2023-07-25T08:25:12.792Z,101201.38
2023-07-25T08:27:41.007Z,101198.78
2023-07-25T08:30:10.367Z,101210.06
2023-07-25T08:32:39.154Z,101201.38
2023-07-25T08:35:07.968Z,101203.97
2023-07-25T08:37:37.497Z,101206.16
2023-07-25T08:40:07.110Z,101215.56
2023-07-25T08:42:37.776Z,101200.50
2023-07-25T08:45:08.750Z,101201.41
2023-07-25T08:47:41.413Z,101197.50
2023-07-25T08:50:14.351Z,101202.47
2023-07-25T08:52:50.475Z,101202.38
2023-07-25T08:55:19.514Z,101189.50
2023-07-25T08:57:48.890Z,101190.00
2023-07-25T09:00:19.602Z,101182.75
2023-07-25T09:02:51.806Z,101186.34
2023-07-25T09:05:23.045Z,101186.53
2023-07-25T09:07:52.833Z,101191.56
2023-07-25T09:10:21.045Z,101187.00
2023-07-25T09:12:49.226Z,101176.59
2023-07-25T09:15:18.828Z,101176.50
2023-07-25T09:17:47.541Z,101181.84
2023-07-25T09:20:16.089Z,101187.69
2023-07-25T09:22:49.199Z,101185.13
2023-07-25T09:25:19.106Z,101182.06
2023-07-25T09:27:48.058Z,101181.59
2023-07-25T09:30:17.391Z,101187.94
2023-07-25T09:32:49.520Z,101183.28
2023-07-25T09:35:18.542Z,101183.69
2023-07-25T09:37:56.929Z,101193.25
2023-07-25T09:40:26.721Z,101189.84
2023-07-25T09:42:55.122Z,101188.19
2023-07-25T09:45:23.497Z,101180.72
2023-07-25T09:47:55.927Z,101179.97
2023-07-25T09:50:28.052Z,101184.28
2023-07-25T09:52:56.078Z,101185.97
2023-07-25T09:55:24.209Z,101195.50
2023-07-25T09:57:56.125Z,101200.09
2023-07-25T10:00:25.096Z,101195.06
2023-07-25T10:02:54.738Z,101185.03
2023-07-25T10:05:26.142Z,101200.25
2023-07-25T10:07:57.717Z,101194.91
2023-07-25T10:10:29.506Z,101199.34
2023-07-25T10:12:59.324Z,101200.91
2023-07-25T10:15:29.165Z,101190.44
2023-07-25T10:18:03.917Z,101189.78
2023-07-25T10:20:32.544Z,101190.72
2023-07-25T10:23:10.589Z,101193.38
2023-07-25T10:25:38.806Z,101186.94
2023-07-25T10:28:10.222Z,101174.84
2023-07-25T10:30:44.638Z,101178.31
2023-07-25T10:33:14.718Z,101180.09
2023-07-25T10:35:50.814Z,101177.94
2023-07-25T10:38:34.083Z,101166.91
2023-07-25T10:41:03.900Z,101162.56
2023-07-25T10:43:58.260Z,101159.09
2023-07-25T10:46:30.187Z,101164.63
2023-07-25T10:49:00.788Z,101174.50
2023-07-25T10:51:53.464Z,101174.50
2023-07-25T10:54:25.467Z,101167.34
2023-07-25T10:57:15.862Z,101163.53
2023-07-25T11:00:05.987Z,101167.34
2023-07-25T11:02:37.730Z,101168.69
2023-07-25T11:05:24.878Z,101166.41
2023-07-25T11:07:56.949Z,101173.09
2023-07-25T11:10:26.692Z,101173.75
2023-07-25T11:12:59.338Z,101156.97
2023-07-25T11:15:45.621Z,101158.75
2023-07-25T11:18:17.256Z,101155.84
2023-07-25T11:20:45.528Z,101154.28
2023-07-25T11:23:14.387Z,101161.84
2023-07-25T11:25:42.766Z,101159.47
2023-07-25T11:28:11.060Z,101162.69
2023-07-25T11:30:45.133Z,101163.84
2023-07-25T11:33:13.889Z,101153.66
2023-07-25T11:35:42.660Z,101162.19
2023-07-25T11:38:11.817Z,101162.91
2023-07-25T11:40:43.116Z,101159.78
2023-07-25T11:43:14.252Z,101151.03
2023-07-25T11:45:46.554Z,101149.50
2023-07-25T11:48:21.754Z,101149.09
2023-07-25T11:50:54.370Z,101157.03
2023-07-25T11:53:25.015Z,101146.59
2023-07-25T11:55:53.689Z,101153.59
2023-07-25T11:58:24.017Z,101153.28
2023-07-25T12:01:00.161Z,101148.78
2023-07-25T12:03:29.259Z,101149.28
2023-07-25T12:05:59.295Z,101147.75
2023-07-25T12:08:34.204Z,101144.88
2023-07-25T12:11:04.858Z,101150.53
2023-07-25T12:13:33.938Z,101150.09
2023-07-25T12:16:04.043Z,101141.31
2023-07-25T12:18:34.479Z,101144.28
2023-07-25T12:21:04.261Z,101146.19
2023-07-25T12:23:40.151Z,101157.50
2023-07-25T12:26:10.085Z,101146.44
2023-07-25T12:28:42.820Z,101150.31
2023-07-25T12:31:13.690Z,101154.56
2023-07-25T12:33:45.334Z,101158.91
2023-07-25T12:36:14.371Z,101164.06
2023-07-25T12:38:43.339Z,101161.81
2023-07-25T12:41:12.795Z,101162.31
2023-07-25T12:43:41.195Z,101154.34
2023-07-25T12:46:10.765Z,101153.59
2023-07-25T12:48:40.442Z,101155.53
2023-07-25T12:51:08.813Z,101155.84
2023-07-25T12:53:37.560Z,101153.84
2023-07-25T12:56:06.259Z,101148.78
2023-07-25T12:58:34.830Z,101160.16
2023-07-25T13:01:03.308Z,101154.59
2023-07-25T13:03:32.506Z,101152.19
2023-07-25T13:06:02.390Z,101152.19
2023-07-25T13:08:31.061Z,101162.97
2023-07-25T13:10:59.371Z,101153.75
2023-07-25T13:13:27.657Z,101154.09
2023-07-25T13:15:55.914Z,101162.31
2023-07-25T13:18:24.588Z,101158.91
2023-07-25T13:20:53.200Z,101148.72
2023-07-25T13:23:22.926Z,101160.44
2023-07-25T13:25:52.998Z,101154.78
2023-07-25T13:28:21.205Z,101158.31
2023-07-25T13:30:49.695Z,101168.56
2023-07-25T13:33:18.234Z,101158.47
2023-07-25T13:35:46.535Z,101158.81
2023-07-25T13:38:14.786Z,101154.69
2023-07-25T13:40:44.567Z,101165.13
2023-07-25T13:43:13.086Z,101157.63
2023-07-25T13:45:51.803Z,101164.13
2023-07-25T13:48:23.638Z,101158.47
2023-07-25T13:50:54.860Z,101158.63
2023-07-25T13:53:24.041Z,101156.69
2023-07-25T13:55:55.981Z,101150.13
2023-07-25T13:58:31.157Z,101157.28
2023-07-25T14:00:59.527Z,101151.31
2023-07-25T14:03:31.317Z,101159.44
2023-07-25T14:06:00.114Z,101155.03
2023-07-25T14:08:28.525Z,101140.69
2023-07-25T14:10:58.457Z,101143.63
2023-07-25T14:13:27.429Z,101142.63
2023-07-25T14:15:56.118Z,101143.03
2023-07-25T14:18:24.622Z,101141.38
2023-07-25T14:20:53.856Z,101141.78
2023-07-25T14:23:23.896Z,101138.38
2023-07-25T14:25:52.054Z,101136.97
2023-07-25T14:28:22.034Z,101133.84
2023-07-25T14:30:50.316Z,101136.34
2023-07-25T14:33:21.909Z,101136.91
2023-07-25T14:35:50.490Z,101143.00
2023-07-25T14:38:19.625Z,101147.28
2023-07-25T14:40:48.183Z,101144.19
2023-07-25T14:43:16.565Z,101145.13
2023-07-25T14:45:46.576Z,101150.41
2023-07-25T14:48:14.786Z,101150.84
2023-07-25T14:50:43.551Z,101146.88
2023-07-25T14:53:12.118Z,101150.47
2023-07-25T14:55:40.550Z,101146.19
2023-07-25T14:58:08.911Z,101154.09
2023-07-25T15:00:37.514Z,101147.00
2023-07-25T15:03:07.512Z,101144.97
2023-07-25T15:05:35.496Z,101149.09
2023-07-25T15:08:03.825Z,101140.13
2023-07-25T15:10:32.535Z,101146.03
2023-07-25T15:13:00.793Z,101140.72
2023-07-25T15:15:29.222Z,101148.72
2023-07-25T15:17:57.864Z,101136.47
2023-07-25T15:20:30.141Z,101139.59
2023-07-25T15:22:58.461Z,101145.38
2023-07-25T15:25:28.646Z,101139.13
2023-07-25T15:27:57.347Z,101137.06
2023-07-25T15:30:27.263Z,101136.50
2023-07-25T15:32:55.708Z,101136.72
2023-07-25T15:35:28.777Z,101141.88
2023-07-25T15:37:57.536Z,101135.19
2023-07-25T15:40:26.380Z,101140.13
2023-07-25T15:42:54.629Z,101128.44
2023-07-25T15:45:22.870Z,101129.25
2023-07-25T15:47:52.246Z,101115.22
2023-07-25T15:50:23.202Z,101120.88
2023-07-25T15:52:52.949Z,101121.94
2023-07-25T15:55:23.223Z,101128.28
2023-07-25T15:57:53.546Z,101123.34
2023-07-25T16:00:21.997Z,101126.31
2023-07-25T16:02:50.223Z,101126.50
2023-07-25T16:05:18.748Z,101119.03
2023-07-25T16:07:47.084Z,101116.06
2023-07-25T16:10:16.927Z,101112.78
2023-07-25T16:12:45.532Z,101116.28
2023-07-25T16:15:13.797Z,101119.97
2023-07-25T16:17:42.049Z,101119.06
2023-07-25T16:20:10.786Z,101114.13
2023-07-25T16:22:40.427Z,101111.63
2023-07-25T16:25:09.349Z,101112.09
2023-07-25T16:27:41.107Z,101122.03
2023-07-25T16:30:11.256Z,101112.78
2023-07-25T16:32:39.778Z,101111.41
2023-07-25T16:35:08.430Z,101111.78
2023-07-25T16:37:36.760Z,101118.25
2023-07-25T16:40:05.893Z,101110.66
2023-07-25T16:42:34.282Z,101114.34
2023-07-25T16:45:04.150Z,101113.59
2023-07-25T16:47:32.457Z,101110.16
2023-07-25T16:50:00.798Z,101111.09
2023-07-25T16:52:29.633Z,101100.44
2023-07-25T16:54:57.843Z,101101.16
2023-07-25T16:57:26.291Z,101106.38
2023-07-25T16:59:55.873Z,101096.00
2023-07-25T17:02:25.877Z,101097.72
2023-07-25T17:04:55.404Z,101100.47
2023-07-25T17:07:23.693Z,101097.97
2023-07-25T17:09:51.993Z,101098.09
2023-07-25T17:12:20.538Z,101093.94
2023-07-25T17:14:49.308Z,101095.97
2023-07-25T17:17:18.064Z,101095.34
2023-07-25T17:19:47.748Z,101093.69
2023-07-25T17:22:15.998Z,101101.56
2023-07-25T17:24:44.672Z,101094.56
2023-07-25T17:27:13.110Z,101092.88
2023-07-25T17:29:41.382Z,101087.69
2023-07-25T17:32:10.223Z,101085.88
2023-07-25T17:34:38.443Z,101088.38
2023-07-25T17:37:08.788Z,101085.66
2023-07-25T17:39:37.338Z,101082.06
2023-07-25T17:42:05.607Z,101083.78
2023-07-25T17:44:34.079Z,101084.50
2023-07-25T17:47:02.515Z,101087.97
2023-07-25T17:49:30.726Z,101094.19
2023-07-25T17:51:59.028Z,101081.88
2023-07-25T17:54:28.659Z,101083.47
2023-07-25T17:56:56.896Z,101084.31
2023-07-25T17:59:25.240Z,101084.28
2023-07-25T18:01:53.926Z,101087.66
2023-07-25T18:04:22.296Z,101085.91
2023-07-25T18:06:51.752Z,101079.03
2023-07-25T18:09:20.233Z,101080.13
2023-07-25T18:11:50.217Z,101074.88
2023-07-25T18:14:18.569Z,101074.84
2023-07-25T18:16:47.283Z,101070.53
2023-07-25T18:19:15.734Z,101078.66
2023-07-25T18:21:43.972Z,101083.09
2023-07-25T18:24:13.427Z,101084.09
2023-07-25T18:26:43.377Z,101083.28
2023-07-25T18:29:13.378Z,101079.97
2023-07-25T18:31:41.620Z,101075.84
2023-07-25T18:34:11.003Z,101084.69
2023-07-25T18:36:39.720Z,101077.84
2023-07-25T18:39:12.350Z,101072.63
2023-07-25T18:41:40.580Z,101085.72
2023-07-25T18:44:08.994Z,101081.41
2023-07-25T18:46:40.583Z,101075.31
2023-07-25T18:49:09.406Z,101068.28
2023-07-25T18:51:37.694Z,101066.50
2023-07-25T18:54:09.164Z,101082.19
2023-07-25T18:56:38.361Z,101072.56
2023-07-25T18:59:06.957Z,101079.59
2023-07-25T19:01:36.053Z,101077.88
2023-07-25T19:04:06.273Z,101077.97
2023-07-25T19:06:34.854Z,101079.75
2023-07-25T19:09:03.313Z,101082.47
2023-07-25T19:11:31.588Z,101078.25
2023-07-25T19:13:59.856Z,101080.13
2023-07-25T19:16:28.137Z,101077.59
2023-07-25T19:18:56.442Z,101082.88
2023-07-25T19:21:26.098Z,101084.63
2023-07-25T19:23:54.407Z,101079.41
2023-07-25T19:26:25.648Z,101081.13
2023-07-25T19:28:53.990Z,101077.66
2023-07-25T19:31:22.160Z,101082.91
2023-07-25T19:33:50.711Z,101078.47
2023-07-25T19:36:19.083Z,101080.19
2023-07-25T19:38:48.947Z,101081.03
2023-07-25T19:41:17.663Z,101077.59
2023-07-25T19:43:49.180Z,101084.59
2023-07-25T19:46:17.497Z,101076.81
2023-07-25T19:48:46.313Z,101075.97
2023-07-25T19:51:16.749Z,101076.84
2023-07-25T19:53:45.340Z,101075.13
2023-07-25T19:56:15.817Z,101079.53
2023-07-25T19:58:44.193Z,101073.47
2023-07-25T20:01:14.782Z,101074.38
2023-07-25T20:03:44.422Z,101075.28
2023-07-25T20:06:13.133Z,101079.66
2023-07-25T20:08:41.358Z,101068.34
2023-07-25T20:11:14.315Z,101077.06
2023-07-25T20:13:44.206Z,101075.38
2023-07-25T20:16:13.969Z,101082.34
2023-07-25T20:18:42.219Z,101076.31
2023-07-25T20:21:12.757Z,101084.22
2023-07-25T20:23:40.961Z,101085.13
2023-07-25T20:26:09.606Z,101086.03
2023-07-25T20:28:40.198Z,101086.94
2023-07-25T20:31:10.216Z,101084.38
2023-07-25T20:33:38.557Z,101082.69
2023-07-25T20:36:07.098Z,101098.41
2023-07-25T20:38:35.590Z,101094.94
2023-07-25T20:41:04.860Z,101101.06
2023-07-25T20:43:33.104Z,101097.63
2023-07-25T20:46:04.633Z,101099.44
2023-07-25T20:48:37.058Z,101108.16
2023-07-25T20:51:05.849Z,101109.94
2023-07-25T20:53:34.049Z,101109.97
2023-07-25T20:56:03.285Z,101113.44
2023-07-25T20:58:33.306Z,101106.50
2023-07-25T21:01:01.885Z,101107.38
2023-07-25T21:03:30.313Z,101108.28
2023-07-25T21:06:00.221Z,101106.56
2023-07-25T21:08:28.681Z,101107.44
2023-07-25T21:10:58.850Z,101099.63
2023-07-25T21:13:26.909Z,101106.56
2023-07-25T21:15:55.429Z,101099.63
2023-07-25T21:18:23.790Z,101102.22
2023-07-25T21:20:52.472Z,101099.63
2023-07-25T21:23:23.706Z,101098.72
2023-07-25T21:25:52.459Z,101101.34
2023-07-25T21:28:20.997Z,101101.34
2023-07-25T21:30:49.331Z,101102.22
2023-07-25T21:33:17.631Z,101105.66
2023-07-25T21:35:46.284Z,101110.88
2023-07-25T21:38:14.459Z,101110.88
2023-07-25T21:40:44.186Z,101109.16
2023-07-25T21:43:12.548Z,101103.03
2023-07-25T21:45:40.833Z,101098.72
2023-07-25T21:48:10.588Z,101113.50
2023-07-25T21:50:39.887Z,101112.63
2023-07-25T21:53:08.220Z,101109.16
2023-07-25T21:55:36.539Z,101110.00
2023-07-25T21:58:06.764Z,101110.91
2023-07-25T22:00:34.779Z,101111.78
2023-07-25T22:03:03.174Z,101110.06
2023-07-25T22:05:31.828Z,101109.22
2023-07-25T22:08:00.208Z,101111.84
2023-07-25T22:10:28.456Z,101105.78
2023-07-25T22:12:57.315Z,101106.69
2023-07-25T22:15:27.432Z,101111.03
2023-07-25T22:17:56.015Z,101113.66
2023-07-25T22:20:32.050Z,101109.31
2023-07-25T22:23:07.036Z,101114.53
2023-07-25T22:25:35.320Z,101106.75
2023-07-25T22:28:03.704Z,101103.28
2023-07-25T22:30:35.008Z,101100.66
2023-07-25T22:33:03.467Z,101103.28
2023-07-25T22:35:31.697Z,101098.94
2023-07-25T22:38:01.105Z,101102.44
2023-07-25T22:40:30.131Z,101105.03
2023-07-25T22:42:58.509Z,101102.44
2023-07-25T22:45:28.349Z,101096.34
2023-07-25T22:47:58.382Z,101098.94
2023-07-25T22:50:26.800Z,101094.59
2023-07-25T22:52:55.217Z,101093.72
2023-07-25T22:55:23.501Z,101102.41
2023-07-25T22:57:51.700Z,101088.53
2023-07-25T23:00:20.157Z,101094.59
2023-07-25T23:02:50.184Z,101093.75
2023-07-25T23:05:21.229Z,101094.59
2023-07-25T23:07:49.652Z,101095.47
2023-07-25T23:10:18.050Z,101092.88
2023-07-25T23:12:46.391Z,101093.72
2023-07-25T23:15:16.758Z,101099.78
2023-07-25T23:17:45.665Z,101094.59
2023-07-25T23:20:14.404Z,101092.84
2023-07-25T23:22:44.091Z,101094.59
2023-07-25T23:25:13.723Z,101098.91
2023-07-25T23:27:41.910Z,101096.31
2023-07-25T23:30:11.583Z,101091.97
2023-07-25T23:32:41.291Z,101094.56
2023-07-25T23:35:10.643Z,101091.97
2023-07-25T23:37:38.926Z,101086.75
2023-07-25T23:40:10.614Z,101092.81
2023-07-25T23:42:38.834Z,101089.34
2023-07-25T23:45:09.394Z,101085.00
2023-07-25T23:47:37.652Z,101084.13
2023-07-25T23:50:06.952Z,101084.13
2023-07-25T23:52:37.591Z,101082.38
2023-07-25T23:55:06.885Z,101080.63
2023-07-25T23:57:36.993Z,101082.38
